sensor_id;sensor_type;location;lat;lon;timestamp;pressure;altitude;pressure_sealevel;temperature;humidity
21664;BME280;10993;52.510;13.456;2023-04-01T00:00:35;56621.53;;;-146.93;84.54
21664;BME280;10993;52.510;13.456;2023-04-01T00:05:35;56645.81;;;-146.93;84.22
21664;BME280;10993;52.510;13.456;2023-04-01T00:10:36;56621.53;;;-146.93;84.60
21664;BME280;10993;52.510;13.456;2023-04-01T00:15:37;56625.59;;;-146.93;85.23
21664;BME280;10993;52.510;13.456;2023-04-01T00:20:38;56613.44;;;-146.93;85.91
21664;BME280;10993;52.510;13.456;2023-04-01T00:25:38;56649.88;;;-146.93;86.02
21664;BME280;10993;52.510;13.456;2023-04-01T00:30:40;56548.66;;;-146.93;85.82
21664;BME280;10993;52.510;13.456;2023-04-01T00:35:40;56613.44;;;-146.93;86.18
21664;BME280;10993;52.510;13.456;2023-04-01T00:40:43;56481.84;;;-146.93;85.88
21664;BME280;10993;52.510;13.456;2023-04-01T00:45:46;56615.47;;;-146.93;86.16
21664;BME280;10993;52.510;13.456;2023-04-01T00:50:49;56641.78;;;-146.93;85.58
21664;BME280;10993;52.510;13.456;2023-04-01T00:55:54;56611.41;;;-146.93;85.43
21664;BME280;10993;52.510;13.456;2023-04-01T01:00:59;56633.69;;;-146.93;85.34
21664;BME280;10993;52.510;13.456;2023-04-01T01:06:13;56625.59;;;-146.93;85.06
21664;BME280;10993;52.510;13.456;2023-04-01T01:11:28;56566.88;;;-146.93;84.67
21664;BME280;10993;52.510;13.456;2023-04-01T01:16:40;56657.97;;;-146.93;84.56
21664;BME280;10993;52.510;13.456;2023-04-01T01:21:51;56605.34;;;-146.93;84.70
21664;BME280;10993;52.510;13.456;2023-04-01T01:27:00;56625.59;;;-146.93;84.66
21664;BME280;10993;52.510;13.456;2023-04-01T01:32:10;56577.00;;;-146.93;84.35
21664;BME280;10993;52.510;13.456;2023-04-01T01:37:17;56633.69;;;-146.93;84.32
21664;BME280;10993;52.510;13.456;2023-04-01T01:42:20;56649.88;;;-146.93;84.39
21664;BME280;10993;52.510;13.456;2023-04-01T01:47:23;56631.66;;;-146.93;84.25
21664;BME280;10993;52.510;13.456;2023-04-01T01:52:27;56516.25;;;-146.93;84.75
21664;BME280;10993;52.510;13.456;2023-04-01T01:57:31;56467.66;;;-146.93;84.63
21664;BME280;10993;52.510;13.456;2023-04-01T02:02:33;56583.06;;;-146.93;85.30
21664;BME280;10993;52.510;13.456;2023-04-01T02:07:37;56639.75;;;-146.93;85.57
21664;BME280;10993;52.510;13.456;2023-04-01T02:12:39;56633.69;;;-146.93;85.41
21664;BME280;10993;52.510;13.456;2023-04-01T02:17:43;56633.69;;;-146.93;85.02
21664;BME280;10993;52.510;13.456;2023-04-01T02:22:48;56619.50;;;-146.93;85.52
21664;BME280;10993;52.510;13.456;2023-04-01T02:27:50;56633.69;;;-146.93;85.55
21664;BME280;10993;52.510;13.456;2023-04-01T02:32:50;56657.97;;;-146.93;86.08
21664;BME280;10993;52.510;13.456;2023-04-01T02:37:53;56633.69;;;-146.93;85.96
21664;BME280;10993;52.510;13.456;2023-04-01T02:42:54;56633.69;;;-146.93;86.09
21664;BME280;10993;52.510;13.456;2023-04-01T02:47:55;56645.81;;;-146.93;86.39
21664;BME280;10993;52.510;13.456;2023-04-01T02:52:57;56647.84;;;-146.93;86.53
21664;BME280;10993;52.510;13.456;2023-04-01T02:57:57;56641.78;;;-146.93;86.74
21664;BME280;10993;52.510;13.456;2023-04-01T03:02:57;56635.72;;;-146.93;87.04
21664;BME280;10993;52.510;13.456;2023-04-01T03:07:59;56435.25;;;-146.93;87.54
21664;BME280;10993;52.510;13.456;2023-04-01T03:13:00;56617.47;;;-146.93;86.20
21664;BME280;10993;52.510;13.456;2023-04-01T03:18:00;56631.66;;;-146.93;86.18
21664;BME280;10993;52.510;13.456;2023-04-01T03:23:02;56647.84;;;-146.93;86.81
21664;BME280;10993;52.510;13.456;2023-04-01T03:28:03;56629.63;;;-146.93;87.24
21664;BME280;10993;52.510;13.456;2023-04-01T03:33:03;56629.63;;;-146.93;87.31
21664;BME280;10993;52.510;13.456;2023-04-01T03:38:05;56506.13;;;-146.93;87.23
21664;BME280;10993;52.510;13.456;2023-04-01T03:43:06;56629.63;;;-146.93;87.41
21664;BME280;10993;52.510;13.456;2023-04-01T03:48:08;56639.75;;;-146.93;87.10
21664;BME280;10993;52.510;13.456;2023-04-01T03:53:10;56633.69;;;-146.93;86.51
21664;BME280;10993;52.510;13.456;2023-04-01T03:58:10;56649.88;;;-146.93;86.27
21664;BME280;10993;52.510;13.456;2023-04-01T04:03:11;56657.97;;;-146.93;86.11
21664;BME280;10993;52.510;13.456;2023-04-01T04:08:13;56633.69;;;-146.93;86.51
21664;BME280;10993;52.510;13.456;2023-04-01T04:13:13;56641.78;;;-146.93;86.42
21664;BME280;10993;52.510;13.456;2023-04-01T04:18:13;56613.44;;;-146.93;86.36
21664;BME280;10993;52.510;13.456;2023-04-01T04:23:15;56637.72;;;-146.93;86.66
21664;BME280;10993;52.510;13.456;2023-04-01T04:28:15;56637.72;;;-146.93;85.70
21664;BME280;10993;52.510;13.456;2023-04-01T04:33:16;56645.81;;;-146.93;85.77
21664;BME280;10993;52.510;13.456;2023-04-01T04:38:18;56684.31;;;-146.93;85.91
21664;BME280;10993;52.510;13.456;2023-04-01T04:43:18;56649.88;;;-146.93;86.39
21664;BME280;10993;52.510;13.456;2023-04-01T04:48:19;56605.34;;;-146.93;85.82
21664;BME280;10993;52.510;13.456;2023-04-01T04:53:21;56637.72;;;-146.93;85.04
21664;BME280;10993;52.510;13.456;2023-04-01T04:58:22;56623.56;;;-146.93;85.08
21664;BME280;10993;52.510;13.456;2023-04-01T05:03:22;56631.66;;;-146.93;85.51
21664;BME280;10993;52.510;13.456;2023-04-01T05:08:24;56696.44;;;-146.93;84.96
21664;BME280;10993;52.510;13.456;2023-04-01T05:13:24;56660.00;;;-146.93;85.17
21664;BME280;10993;52.510;13.456;2023-04-01T05:18:25;56649.88;;;-146.93;84.62
21664;BME280;10993;52.510;13.456;2023-04-01T05:23:26;56496.00;;;-146.93;84.32
21664;BME280;10993;52.510;13.456;2023-04-01T05:28:27;56645.81;;;-146.93;83.69
21664;BME280;10993;52.510;13.456;2023-04-01T05:33:28;56605.34;;;-146.93;84.20
21664;BME280;10993;52.510;13.456;2023-04-01T05:38:30;56670.13;;;-146.93;84.59
21664;BME280;10993;52.510;13.456;2023-04-01T05:43:30;56657.97;;;-146.93;84.59
21664;BME280;10993;52.510;13.456;2023-04-01T05:48:30;56686.31;;;-146.93;84.27
21664;BME280;10993;52.510;13.456;2023-04-01T05:53:32;56672.16;;;-146.93;84.57
21664;BME280;10993;52.510;13.456;2023-04-01T05:58:32;56676.19;;;-146.93;84.22
21664;BME280;10993;52.510;13.456;2023-04-01T06:03:33;56712.66;;;-146.93;84.11
21664;BME280;10993;52.510;13.456;2023-04-01T06:08:35;56710.63;;;-146.93;84.13
21664;BME280;10993;52.510;13.456;2023-04-01T06:13:47;56599.25;;;-146.93;84.06
21664;BME280;10993;52.510;13.456;2023-04-01T06:19:10;56680.25;;;-146.93;83.20
21664;BME280;10993;52.510;13.456;2023-04-01T06:24:29;56684.31;;;-146.93;82.55
21664;BME280;10993;52.510;13.456;2023-04-01T06:29:49;56678.22;;;-146.93;82.90
21664;BME280;10993;52.510;13.456;2023-04-01T06:35:13;56686.31;;;-146.93;82.93
21664;BME280;10993;52.510;13.456;2023-04-01T06:40:40;56698.47;;;-146.93;83.16
21664;BME280;10993;52.510;13.456;2023-04-01T06:45:47;56710.63;;;-146.93;83.20
21664;BME280;10993;52.510;13.456;2023-04-01T06:50:55;56682.28;;;-146.93;84.34
21664;BME280;10993;52.510;13.456;2023-04-01T06:56:06;56688.34;;;-146.93;84.84
21664;BME280;10993;52.510;13.456;2023-04-01T07:01:11;56692.41;;;-146.93;85.87
21664;BME280;10993;52.510;13.456;2023-04-01T07:06:25;56714.66;;;-146.93;86.04
21664;BME280;10993;52.510;13.456;2023-04-01T07:11:32;56722.78;;;-146.93;85.04
21664;BME280;10993;52.510;13.456;2023-04-01T07:16:36;56751.13;;;-146.93;84.80
21664;BME280;10993;52.510;13.456;2023-04-01T07:21:42;56747.06;;;-146.93;84.66
21664;BME280;10993;52.510;13.456;2023-04-01T07:26:46;56730.88;;;-146.93;85.46
21664;BME280;10993;52.510;13.456;2023-04-01T07:32:03;56664.06;;;-146.93;85.01
21664;BME280;10993;52.510;13.456;2023-04-01T07:37:11;56759.22;;;-146.93;83.22
21664;BME280;10993;52.510;13.456;2023-04-01T07:42:23;56779.47;;;-146.93;83.54
21664;BME280;10993;52.510;13.456;2023-04-01T07:47:34;56747.06;;;-146.93;83.14
21664;BME280;10993;52.510;13.456;2023-04-01T07:52:44;56759.22;;;-146.93;83.63
21664;BME280;10993;52.510;13.456;2023-04-01T07:57:53;56728.84;;;-146.93;83.18
21664;BME280;10993;52.510;13.456;2023-04-01T08:03:18;58055.34;;;-146.93;83.81
21664;BME280;10993;52.510;13.456;2023-04-01T08:08:30;56775.41;;;-146.93;84.16
21664;BME280;10993;52.510;13.456;2023-04-01T08:13:39;56741.00;;;-146.93;83.41
21664;BME280;10993;52.510;13.456;2023-04-01T08:18:48;56653.94;;;-146.93;83.74
21664;BME280;10993;52.510;13.456;2023-04-01T08:23:55;56694.41;;;-146.93;83.13
21664;BME280;10993;52.510;13.456;2023-04-01T08:29:01;56639.75;;;-146.93;85.01
21664;BME280;10993;52.510;13.456;2023-04-01T08:34:08;56660.00;;;-146.93;86.98
21664;BME280;10993;52.510;13.456;2023-04-01T08:39:14;56589.13;;;-146.93;88.48
21664;BME280;10993;52.510;13.456;2023-04-01T08:44:30;56587.13;;;-146.93;88.83
21664;BME280;10993;52.510;13.456;2023-04-01T08:49:57;57168.25;;;-146.93;88.75
21664;BME280;10993;52.510;13.456;2023-04-01T08:55:30;56609.38;;;-146.93;89.14
21664;BME280;10993;52.510;13.456;2023-04-01T09:00:38;56595.22;;;-146.93;89.38
21664;BME280;10993;52.510;13.456;2023-04-01T09:06:13;56603.31;;;-146.93;89.21
21664;BME280;10993;52.510;13.456;2023-04-01T09:11:33;56554.72;;;-146.93;88.83
21664;BME280;10993;52.510;13.456;2023-04-01T09:16:59;57427.47;;;-146.93;87.89
21664;BME280;10993;52.510;13.456;2023-04-01T09:22:27;56593.19;;;-146.93;86.72
21664;BME280;10993;52.510;13.456;2023-04-01T09:27:39;56631.66;;;-146.93;86.06
21664;BME280;10993;52.510;13.456;2023-04-01T09:33:01;56619.50;;;-146.93;85.38
21664;BME280;10993;52.510;13.456;2023-04-01T09:38:21;56583.06;;;-146.93;86.67
21664;BME280;10993;52.510;13.456;2023-04-01T09:43:27;56568.88;;;-146.93;86.74
21664;BME280;10993;52.510;13.456;2023-04-01T09:48:44;56570.91;;;-146.93;88.78
21664;BME280;10993;52.510;13.456;2023-04-01T09:53:56;56572.94;;;-146.93;88.77
21664;BME280;10993;52.510;13.456;2023-04-01T09:59:18;56615.47;;;-146.93;88.28
21664;BME280;10993;52.510;13.456;2023-04-01T10:10:43;56605.34;;;-146.93;87.47
21664;BME280;10993;52.510;13.456;2023-04-01T10:16:11;56603.31;;;-146.93;89.23
21664;BME280;10993;52.510;13.456;2023-04-01T10:21:55;56613.44;;;-146.93;87.67
21664;BME280;10993;52.510;13.456;2023-04-01T10:32:44;56524.34;;;-146.93;87.17
21664;BME280;10993;52.510;13.456;2023-04-01T10:38:19;56613.44;;;-146.93;87.64
21664;BME280;10993;52.510;13.456;2023-04-01T10:43:42;56574.97;;;-146.93;88.37
21664;BME280;10993;52.510;13.456;2023-04-01T10:49:36;56532.44;;;-146.93;88.28
21664;BME280;10993;52.510;13.456;2023-04-01T10:54:49;56595.22;;;-146.93;87.07
21664;BME280;10993;52.510;13.456;2023-04-01T11:00:24;57346.47;;;-146.93;87.11
21664;BME280;10993;52.510;13.456;2023-04-01T11:05:54;56585.09;;;-146.93;86.02
21664;BME280;10993;52.510;13.456;2023-04-01T11:11:26;56605.34;;;-146.93;87.84
21664;BME280;10993;52.510;13.456;2023-04-01T11:17:10;56556.75;;;-146.93;86.99
21664;BME280;10993;52.510;13.456;2023-04-01T11:22:32;56540.53;;;-146.93;86.72
21664;BME280;10993;52.510;13.456;2023-04-01T11:27:51;56585.09;;;-146.93;86.78
21664;BME280;10993;52.510;13.456;2023-04-01T11:33:03;56487.91;;;-146.93;87.23
21664;BME280;10993;52.510;13.456;2023-04-01T11:38:17;56554.72;;;-146.93;87.50
21664;BME280;10993;52.510;13.456;2023-04-01T11:43:29;56574.97;;;-146.93;87.44
21664;BME280;10993;52.510;13.456;2023-04-01T11:48:46;56566.88;;;-146.93;87.19
21664;BME280;10993;52.510;13.456;2023-04-01T11:53:57;56587.13;;;-146.93;86.50
21664;BME280;10993;52.510;13.456;2023-04-01T11:59:14;56574.97;;;-146.93;86.45
21664;BME280;10993;52.510;13.456;2023-04-01T12:04:38;56532.44;;;-146.93;87.67
21664;BME280;10993;52.510;13.456;2023-04-01T12:09:49;56568.88;;;-146.93;88.21
21664;BME280;10993;52.510;13.456;2023-04-01T12:15:02;56402.88;;;-146.93;87.65
21664;BME280;10993;52.510;13.456;2023-04-01T12:20:20;56581.03;;;-146.93;87.88
21664;BME280;10993;52.510;13.456;2023-04-01T12:25:31;56587.13;;;-146.93;87.93
21664;BME280;10993;52.510;13.456;2023-04-01T12:30:42;56415.03;;;-146.93;87.49
21664;BME280;10993;52.510;13.456;2023-04-01T12:35:55;56611.41;;;-146.93;87.21
21664;BME280;10993;52.510;13.456;2023-04-01T12:41:09;56599.25;;;-146.93;87.65
21664;BME280;10993;52.510;13.456;2023-04-01T12:46:19;57834.56;;;-146.93;88.01
21664;BME280;10993;52.510;13.456;2023-04-01T12:51:39;56587.13;;;-146.93;87.26
21664;BME280;10993;52.510;13.456;2023-04-01T12:56:50;56593.19;;;-146.93;86.99
21664;BME280;10993;52.510;13.456;2023-04-01T13:02:12;56560.78;;;-146.93;86.78
21664;BME280;10993;52.510;13.456;2023-04-01T13:07:42;56566.88;;;-146.93;87.32
21664;BME280;10993;52.510;13.456;2023-04-01T13:13:04;56585.09;;;-146.93;87.32
21664;BME280;10993;52.510;13.456;2023-04-01T13:18:23;56601.28;;;-146.93;86.07
21664;BME280;10993;52.510;13.456;2023-04-01T13:23:34;56556.75;;;-146.93;85.96
21664;BME280;10993;52.510;13.456;2023-04-01T13:28:39;56544.59;;;-146.93;85.43
21664;BME280;10993;52.510;13.456;2023-04-01T13:33:50;56568.88;;;-146.93;87.22
21664;BME280;10993;52.510;13.456;2023-04-01T13:39:19;56577.00;;;-146.93;86.58
21664;BME280;10993;52.510;13.456;2023-04-01T13:44:28;56560.78;;;-146.93;85.70
21664;BME280;10993;52.510;13.456;2023-04-01T13:49:40;56526.38;;;-146.93;86.74
21664;BME280;10993;52.510;13.456;2023-04-01T13:54:58;56556.75;;;-146.93;86.66
21664;BME280;10993;52.510;13.456;2023-04-01T14:00:20;56532.44;;;-146.93;87.31
21664;BME280;10993;52.510;13.456;2023-04-01T14:05:39;56542.56;;;-146.93;87.13
21664;BME280;10993;52.510;13.456;2023-04-01T14:10:50;56581.03;;;-146.93;86.96
21664;BME280;10993;52.510;13.456;2023-04-01T14:16:16;56548.66;;;-146.93;86.11
21664;BME280;10993;52.510;13.456;2023-04-01T14:21:33;56548.66;;;-146.93;85.54
21664;BME280;10993;52.510;13.456;2023-04-01T14:32:13;56544.59;;;-146.93;86.83
21664;BME280;10993;52.510;13.456;2023-04-01T14:37:30;56532.44;;;-146.93;84.77
21664;BME280;10993;52.510;13.456;2023-04-01T14:42:48;56564.84;;;-146.93;86.01
21664;BME280;10993;52.510;13.456;2023-04-01T14:47:56;56548.66;;;-146.93;86.39
21664;BME280;10993;52.510;13.456;2023-04-01T14:53:12;56769.34;;;-146.93;87.11
21664;BME280;10993;52.510;13.456;2023-04-01T14:58:17;56532.44;;;-146.93;86.69
21664;BME280;10993;52.510;13.456;2023-04-01T15:03:23;56568.88;;;-146.93;87.59
21664;BME280;10993;52.510;13.456;2023-04-01T15:08:28;56556.75;;;-146.93;85.45
21664;BME280;10993;52.510;13.456;2023-04-01T15:13:41;56518.28;;;-146.93;85.74
21664;BME280;10993;52.510;13.456;2023-04-01T15:18:52;56577.00;;;-146.93;87.17
21664;BME280;10993;52.510;13.456;2023-04-01T15:24:03;56530.41;;;-146.93;86.86
21664;BME280;10993;52.510;13.456;2023-04-01T15:29:20;56558.75;;;-146.93;87.11
21664;BME280;10993;52.510;13.456;2023-04-01T15:34:32;56437.28;;;-146.93;87.07
21664;BME280;10993;52.510;13.456;2023-04-01T15:39:45;56520.28;;;-146.93;87.54
21664;BME280;10993;52.510;13.456;2023-04-01T15:44:58;56504.09;;;-146.93;88.32
21664;BME280;10993;52.510;13.456;2023-04-01T15:50:36;56548.66;;;-146.93;85.90
21664;BME280;10993;52.510;13.456;2023-04-01T15:55:47;56548.66;;;-146.93;84.78
21664;BME280;10993;52.510;13.456;2023-04-01T16:00:53;56489.94;;;-146.93;85.65
21664;BME280;10993;52.510;13.456;2023-04-01T16:06:11;56522.31;;;-146.93;85.33
21664;BME280;10993;52.510;13.456;2023-04-01T16:11:19;56532.44;;;-146.93;86.24
21664;BME280;10993;52.510;13.456;2023-04-01T16:16:32;56544.59;;;-146.93;86.18
21664;BME280;10993;52.510;13.456;2023-04-01T16:21:44;56540.53;;;-146.93;86.43
21664;BME280;10993;52.510;13.456;2023-04-01T16:26:52;56532.44;;;-146.93;86.79
21664;BME280;10993;52.510;13.456;2023-04-01T16:32:04;56528.41;;;-146.93;86.27
21664;BME280;10993;52.510;13.456;2023-04-01T16:37:11;56564.84;;;-146.93;86.08
21664;BME280;10993;52.510;13.456;2023-04-01T16:42:27;56548.66;;;-146.93;86.34
21664;BME280;10993;52.510;13.456;2023-04-01T16:47:33;56577.00;;;-146.93;86.43
21664;BME280;10993;52.510;13.456;2023-04-01T16:52:44;56548.66;;;-146.93;85.69
21664;BME280;10993;52.510;13.456;2023-04-01T16:57:51;56510.19;;;-146.93;85.46
21664;BME280;10993;52.510;13.456;2023-04-01T17:02:58;56506.13;;;-146.93;85.68
21664;BME280;10993;52.510;13.456;2023-04-01T17:08:09;56530.41;;;-146.93;85.62
21664;BME280;10993;52.510;13.456;2023-04-01T17:13:40;56548.66;;;-146.93;85.94
21664;BME280;10993;52.510;13.456;2023-04-01T17:18:47;56552.69;;;-146.93;86.28
21664;BME280;10993;52.510;13.456;2023-04-01T17:23:51;56548.66;;;-146.93;86.97
21664;BME280;10993;52.510;13.456;2023-04-01T17:28:58;56548.66;;;-146.93;86.56
21664;BME280;10993;52.510;13.456;2023-04-01T17:34:17;56520.28;;;-146.93;86.78
21664;BME280;10993;52.510;13.456;2023-04-01T17:39:39;56447.41;;;-146.93;86.79
21664;BME280;10993;52.510;13.456;2023-04-01T17:44:52;56461.59;;;-146.93;87.04
21664;BME280;10993;52.510;13.456;2023-04-01T17:50:00;56538.53;;;-146.93;87.61
21664;BME280;10993;52.510;13.456;2023-04-01T17:55:26;56574.97;;;-146.93;87.25
21664;BME280;10993;52.510;13.456;2023-04-01T18:00:36;56546.63;;;-146.93;87.18
21664;BME280;10993;52.510;13.456;2023-04-01T18:05:51;56518.28;;;-146.93;87.23
21664;BME280;10993;52.510;13.456;2023-04-01T18:11:00;56544.59;;;-146.93;87.41
21664;BME280;10993;52.510;13.456;2023-04-01T18:16:19;56562.81;;;-146.93;88.23
21664;BME280;10993;52.510;13.456;2023-04-01T18:21:29;56532.44;;;-146.93;88.02
21664;BME280;10993;52.510;13.456;2023-04-01T18:26:33;56532.44;;;-146.93;87.50
21664;BME280;10993;52.510;13.456;2023-04-01T18:31:38;56512.19;;;-146.93;87.22
21664;BME280;10993;52.510;13.456;2023-04-01T18:36:44;56544.59;;;-146.93;87.21
21664;BME280;10993;52.510;13.456;2023-04-01T18:41:53;56548.66;;;-146.93;87.27
21664;BME280;10993;52.510;13.456;2023-04-01T18:47:07;56544.59;;;-146.93;86.66
21664;BME280;10993;52.510;13.456;2023-04-01T18:52:19;56552.69;;;-146.93;86.88
21664;BME280;10993;52.510;13.456;2023-04-01T18:57:22;56544.59;;;-146.93;87.27
21664;BME280;10993;52.510;13.456;2023-04-01T19:02:31;56554.72;;;-146.93;86.90
21664;BME280;10993;52.510;13.456;2023-04-01T19:07:43;56544.59;;;-146.93;87.58
21664;BME280;10993;52.510;13.456;2023-04-01T19:12:53;56532.44;;;-146.93;87.39
21664;BME280;10993;52.510;13.456;2023-04-01T19:18:16;56487.91;;;-146.93;86.97
21664;BME280;10993;52.510;13.456;2023-04-01T19:23:47;56530.41;;;-146.93;86.08
21664;BME280;10993;52.510;13.456;2023-04-01T19:28:56;56550.66;;;-146.93;87.29
21664;BME280;10993;52.510;13.456;2023-04-01T19:34:07;56585.09;;;-146.93;87.00
21664;BME280;10993;52.510;13.456;2023-04-01T19:39:27;56572.94;;;-146.93;87.36
21664;BME280;10993;52.510;13.456;2023-04-01T19:44:41;56536.50;;;-146.93;87.82
21664;BME280;10993;52.510;13.456;2023-04-01T19:49:51;56564.84;;;-146.93;87.49
21664;BME280;10993;52.510;13.456;2023-04-01T19:55:02;56536.50;;;-146.93;87.32
21664;BME280;10993;52.510;13.456;2023-04-01T20:00:15;56516.25;;;-146.93;87.50
21664;BME280;10993;52.510;13.456;2023-04-01T20:05:34;56552.69;;;-146.93;87.07
21664;BME280;10993;52.510;13.456;2023-04-01T20:10:40;56524.34;;;-146.93;87.34
21664;BME280;10993;52.510;13.456;2023-04-01T20:15:43;56570.91;;;-146.93;87.74
21664;BME280;10993;52.510;13.456;2023-04-01T20:20:59;56544.59;;;-146.93;87.36
21664;BME280;10993;52.510;13.456;2023-04-01T20:26:04;56548.66;;;-146.93;86.76
21664;BME280;10993;52.510;13.456;2023-04-01T20:31:23;56579.00;;;-146.93;86.66
21664;BME280;10993;52.510;13.456;2023-04-01T20:36:31;56504.09;;;-146.93;87.04
21664;BME280;10993;52.510;13.456;2023-04-01T20:41:40;56552.69;;;-146.93;86.97
21664;BME280;10993;52.510;13.456;2023-04-01T20:46:48;56534.47;;;-146.93;86.90
21664;BME280;10993;52.510;13.456;2023-04-01T20:51:56;56439.31;;;-146.93;87.06
21664;BME280;10993;52.510;13.456;2023-04-01T20:57:05;56536.50;;;-146.93;87.03
21664;BME280;10993;52.510;13.456;2023-04-01T21:02:20;56502.06;;;-146.93;86.95
21664;BME280;10993;52.510;13.456;2023-04-01T21:07:32;56558.75;;;-146.93;86.49
21664;BME280;10993;52.510;13.456;2023-04-01T21:12:42;56568.88;;;-146.93;85.64
21664;BME280;10993;52.510;13.456;2023-04-01T21:17:56;56570.91;;;-146.93;84.57
21664;BME280;10993;52.510;13.456;2023-04-01T21:23:08;56504.09;;;-146.93;84.02
21664;BME280;10993;52.510;13.456;2023-04-01T21:28:40;56593.19;;;-146.93;84.25
21664;BME280;10993;52.510;13.456;2023-04-01T21:33:58;56447.41;;;-146.93;83.66
21664;BME280;10993;52.510;13.456;2023-04-01T21:39:10;56581.03;;;-146.93;83.36
21664;BME280;10993;52.510;13.456;2023-04-01T21:44:39;56491.94;;;-146.93;83.55
21664;BME280;10993;52.510;13.456;2023-04-01T21:50:07;56506.13;;;-146.93;83.40
21664;BME280;10993;52.510;13.456;2023-04-01T21:55:49;56568.88;;;-146.93;83.58
21664;BME280;10993;52.510;13.456;2023-04-01T22:01:05;56617.47;;;-146.93;81.99
21664;BME280;10993;52.510;13.456;2023-04-01T22:06:15;56556.75;;;-146.93;81.73
21664;BME280;10993;52.510;13.456;2023-04-01T22:11:26;56475.75;;;-146.93;81.13
21664;BME280;10993;52.510;13.456;2023-04-01T22:16:37;56550.66;;;-146.93;80.72
21664;BME280;10993;52.510;13.456;2023-04-01T22:21:44;56572.94;;;-146.93;80.08
21664;BME280;10993;52.510;13.456;2023-04-01T22:26:58;56518.28;;;-146.93;79.43
21664;BME280;10993;52.510;13.456;2023-04-01T22:32:05;56566.88;;;-146.93;79.15
21664;BME280;10993;52.510;13.456;2023-04-01T22:37:14;56544.59;;;-146.93;78.85
21664;BME280;10993;52.510;13.456;2023-04-01T22:42:33;56500.06;;;-146.93;77.84
21664;BME280;10993;52.510;13.456;2023-04-01T22:47:40;56579.00;;;-146.93;78.20
21664;BME280;10993;52.510;13.456;2023-04-01T22:52:58;56583.06;;;-146.93;77.67
21664;BME280;10993;52.510;13.456;2023-04-01T22:58:09;56516.25;;;-146.93;77.58
21664;BME280;10993;52.510;13.456;2023-04-01T23:03:15;56564.84;;;-146.93;76.80
21664;BME280;10993;52.510;13.456;2023-04-01T23:08:41;56579.00;;;-146.93;76.15
21664;BME280;10993;52.510;13.456;2023-04-01T23:13:47;56579.00;;;-146.93;75.61
21664;BME280;10993;52.510;13.456;2023-04-01T23:18:58;56076.94;;;-146.93;76.13
21664;BME280;10993;52.510;13.456;2023-04-01T23:24:11;56348.22;;;-146.93;74.68
21664;BME280;10993;52.510;13.456;2023-04-01T23:29:17;56512.19;;;-146.93;74.82
21664;BME280;10993;52.510;13.456;2023-04-01T23:34:27;56512.19;;;-146.93;74.68
21664;BME280;10993;52.510;13.456;2023-04-01T23:39:32;56512.19;;;-146.93;74.89
21664;BME280;10993;52.510;13.456;2023-04-01T23:44:35;56536.50;;;-146.93;74.24
21664;BME280;10993;52.510;13.456;2023-04-01T23:49:41;56544.59;;;-146.93;74.00
21664;BME280;10993;52.510;13.456;2023-04-01T23:54:48;56581.03;;;-146.93;73.73
